x

East Superior -70 Nm Ne Marquette, Mi (45004) Wave Buoy

11:50am - Mon 25th Jul 2016 All times are CDT. -5 hours from GMT.

  • Sig Wave height 2.6ft
  • Swell Direction
  • Peak Period 5s
  • Average Period 4s
  • Wind
    13mph, 16mph gusts
  • Sea Temp 53°f
  • Air Temp 56°f
  • Sea Pressure 1011.6mb
  • East Superior -70 Nm Ne Marquette, Mi
  • East Superior -70 Nm Ne Marquette, Mi

More Historic Weather Station data

Upgrade to MSW Pro to gain access to the past 30 days of data for over 8000 Wavebouys and Weather Stations around the globe.

Join Pro

Comparision Forecast

View Surf forecast
   
Mon 07/25 11:50am 2.5ft 5s 4s 13 16 mph 1011.6mb 53f 56f
10:50am 2.5ft 5s 4s 16 18 mph 1010.9mb 53f 57f
9:50am 2.5ft 4s 4s 18 20 mph 1010.3mb 53f 57f
8:50am 2.5ft 4s 4s 18 20 mph 1009.9mb 53f 57f
7:50am 2.5ft 4s 4s 16 18 mph 1009.4mb 53f 57f
6:50am 2ft 4s 3s 13
mph
1009mb 53f 57f
5:50am 2ft 4s 4s 16 18 mph 1008.4mb 53f 57f
4:50am 2ft 4s 3s 16 18 mph 1008mb 53f 58f
3:50am 1.6ft 4s 4s 13 16 mph 1007.9mb 53f 58f
2:50am 2ft 5s 4s 13 16 mph 1007.5mb 53f 59f
1:50am 1.6ft 4s 3s 13 16 mph 1007.1mb 53f 58f
12:50am 2ft 4s 4s 11
mph
1007.5mb 53f 57f
Sun 07/24 11:50pm 2ft 4s 4s 11 13 mph 1007.4mb 53f 58f
10:50pm 1.6ft 4s 3s 11 13 mph 1007.4mb 53f 58f
9:50pm 1.6ft 4s 4s 11 13 mph 1007.3mb 53f 59f
8:50pm 1.3ft 4s 3s 9 11 mph 1007.3mb 53f 58f
7:50pm 1.3ft 4s 3s 11 13 mph 1006.7mb 53f 62f
6:50pm 1.3ft 5s 4s 9
mph
1006.5mb 53f 60f
5:50pm 1.6ft 5s 4s 9 11 mph 1006.4mb 53f 60f
4:50pm 1.6ft 5s 4s 13
mph
1006.5mb 54f 60f
3:50pm 1.6ft 5s 4s 16 18 mph 1006.2mb 53f 60f
2:50pm 2ft 4s 4s 11 13 mph 1006.4mb 53f 60f
1:50pm 1.6ft 4s 3s 11
mph
1006.4mb 53f 59f
12:50pm 1.6ft 4s 3s 11
mph
1006.5mb 53f 58f
11:50am 1.6ft 4s 3s 11 13 mph 1006.5mb 53f 58f
10:50am 2ft 4s 3s 13 18 mph 1006.7mb 53f 58f
9:50am 2ft 4s 3s 16 18 mph 1006.7mb 53f 58f
8:50am 2.5ft 4s 4s 16 18 mph 1007.2mb 53f 57f
7:50am 2ft 4s 3s 16 18 mph 1008mb 52f 58f
6:50am 2ft 4s 3s 18 20 mph 1008.8mb 52f 58f
5:50am 1ft 3s 3s 25 29 mph 1008.4mb 53f 60f
4:50am 0.7ft  -  3s 13 20 mph 1009.8mb 53f 60f
3:50am 0.7ft  -  3s 9 11 mph 1010.7mb 53f 59f
2:50am 0.7ft  -  2s 11
mph
1011.1mb 53f 58f
1:50am 0.3ft  -  3s 9 11 mph 1010.8mb 53f 57f
12:50am 0.3ft  -  3s 11
mph
1011.2mb 53f 58f
Sat 07/23 11:50pm 0.3ft  -  3s 11 13 mph 1011.8mb 53f 58f
10:50pm 0.3ft  -  3s 9 11 mph 1012.2mb 53f 58f
9:50pm 0.3ft  -  3s 9
mph
1012.6mb 53f 58f
8:50pm 0.3ft  -  3s 9
mph
1012.9mb 54f 58f
7:50pm 0.3ft  -  3s 9
mph
1013.2mb 54f 58f
6:50pm 0.3ft  -  3s 9 11 mph 1013.6mb 55f 60f
5:50pm 0.3ft  -  3s 7
mph
1014.1mb 57f 60f
4:50pm 0.3ft  -  3s 4
mph
1014.6mb 58f 61f
3:50pm 0.3ft  -  3s 4
mph
1014.7mb 58f 62f
2:50pm 0.3ft  -  3s 2
mph
1016.1mb 57f 61f
1:50pm 0.7ft  -  3s  -  2 mph 1016.5mb 57f 59f
12:50pm 0.7ft  -  3s 4
mph
1015.4mb 55f 56f
11:50am 0.7ft  -  4s 7
mph
1015.4mb 53f 56f
10:50am 0.7ft  -  3s 7
mph
1016mb 54f 56f
9:50am 0.7ft  -  3s 2
mph
1016.2mb 52f 56f
8:50am 0.7ft  -  3s 7
mph
1015.6mb 52f 55f
7:50am 0.7ft  -  3s 7 9 mph 1015.5mb 51f 55f
6:50am 1ft 4s 3s 9
mph
1015mb 51f 54f
5:50am 1ft 4s 3s 7
mph
1014.5mb 51f 55f
4:50am 1ft 4s 3s 7 11 mph 1014mb 51f 56f
3:50am 1ft 3s 3s 7
mph
1013.5mb 51f 55f
2:50am 1.3ft 5s 3s 9
mph
1013.4mb 51f 56f
1:50am 1.3ft 4s 4s 4
mph
1013.3mb 51f 56f
12:50am 1.6ft 4s 4s 4 7 mph 1012.8mb 51f 56f
Fri 07/22 11:50pm 2ft 4s 4s 7
mph
1012.7mb 51f 56f
10:50pm 2ft 5s 4s 9 11 mph 1012mb 51f 57f
9:50pm 2.5ft 5s 4s 11
mph
1011.9mb 51f 56f
8:50pm 2.5ft 5s 4s 13
mph
1011.6mb 51f 58f
7:50pm 2.5ft 5s 4s 13
mph
1011.5mb 51f 58f
6:50pm 2.5ft 5s 4s 13 16 mph 1011.4mb 52f 58f
5:50pm 2.5ft 5s 4s 16 18 mph 1011.4mb 52f 60f
4:50pm 2ft 5s 4s 18 20 mph 1011.3mb 52f 59f
3:50pm 1.6ft 4s 4s 13 16 mph 1011.6mb 52f 58f
2:50pm 2ft 4s 4s 11 13 mph 1011.7mb 52f 57f
12:50pm 2ft 5s 4s 13 16 mph 1012.2mb 51f 57f
11:50am 2ft 4s 4s 11 13 mph 1012.6mb 51f 56f
10:50am 2ft 4s 4s 11 13 mph 1011.8mb 51f 56f
9:50am 2ft 4s 4s 11
mph
1011.6mb 51f 56f
8:50am 2ft 4s 4s 11 13 mph 1011.2mb 50f 56f
7:50am 2.5ft 5s 4s 13 16 mph 1011mb 50f 57f
6:50am 2.5ft 5s 4s 16 18 mph 1010.6mb 50f 58f
5:50am 2ft 5s 4s 13 16 mph 1010.5mb 50f 57f
4:50am 2.5ft 5s 4s 13 16 mph 1010.2mb 50f 57f
3:50am 2.5ft 5s 4s 18 20 mph 1009.9mb 51f 59f
2:50am 2ft 5s 4s 16 18 mph 1010mb 51f 57f
1:50am 2ft 5s 4s 13 16 mph 1009.8mb 51f 57f
12:50am 2.5ft 5s 4s 13 16 mph 1009.6mb 51f 57f
Thu 07/21 11:50pm 2.5ft 5s 4s 11
mph
1009.4mb 51f 56f
10:50pm 2.5ft 5s 4s 13 16 mph 1009mb 51f 57f
9:50pm 2.5ft 6s 4s 16
mph
1008.3mb 51f 59f
8:50pm 3.5ft 6s 4s 16 18 mph 1007.9mb 51f 61f
7:50pm 3.5ft 5s 4s 13 16 mph 1007.8mb 51f 60f
6:50pm 3ft 5s 4s 18 20 mph 1007mb 51f 61f